createdAt,value
2023-05-14T00:00:50.411Z,14.25
2023-05-14T00:03:17.086Z,20.38
2023-05-14T00:05:43.734Z,17.73
2023-05-14T00:08:10.259Z,14.17
2023-05-14T00:10:36.773Z,19.70
2023-05-14T00:13:03.257Z,17.83
2023-05-14T00:15:30.924Z,15.23
2023-05-14T00:17:58.839Z,18.35
2023-05-14T00:20:25.553Z,16.33
2023-05-14T00:22:52.154Z,16.30
2023-05-14T00:25:18.628Z,17.23
2023-05-14T00:27:45.465Z,15.82
2023-05-14T00:30:12.369Z,14.15
2023-05-14T00:32:38.833Z,17.07
2023-05-14T00:35:05.901Z,16.73
2023-05-14T00:37:32.343Z,16.75
2023-05-14T00:39:58.832Z,16.58
2023-05-14T00:42:26.664Z,16.42
2023-05-14T00:44:53.663Z,14.07
2023-05-14T00:47:21.124Z,16.13
2023-05-14T00:49:47.588Z,17.48
2023-05-14T00:52:15.434Z,15.98
2023-05-14T00:54:42.822Z,15.38
2023-05-14T00:57:09.445Z,17.80
2023-05-14T00:59:36.151Z,17.35
2023-05-14T01:02:02.768Z,15.70
2023-05-14T01:04:29.651Z,13.82
2023-05-14T01:07:20.624Z,15.23
2023-05-14T01:09:56.596Z,18.60
2023-05-14T01:12:55.677Z,16.33
2023-05-14T01:15:26.709Z,17.90
2023-05-14T01:18:09.847Z,16.02
2023-05-14T01:20:36.755Z,13.18
2023-05-14T01:23:03.776Z,14.50
2023-05-14T01:25:31.436Z,13.57
2023-05-14T01:28:02.833Z,14.93
2023-05-14T01:30:36.687Z,13.60
2023-05-14T01:33:10.021Z,15.60
2023-05-14T01:35:36.862Z,18.63
2023-05-14T01:38:12.359Z,17.40
2023-05-14T01:40:39.714Z,16.30
2023-05-14T01:43:06.585Z,16.17
2023-05-14T01:45:35.789Z,15.10
2023-05-14T01:48:02.488Z,15.63
2023-05-14T01:50:29.097Z,17.85
2023-05-14T01:52:56.731Z,15.25
2023-05-14T01:55:26.938Z,15.43
2023-05-14T01:57:54.242Z,15.02
2023-05-14T02:00:22.311Z,15.20
2023-05-14T02:02:48.961Z,17.75
2023-05-14T02:05:15.542Z,13.80
2023-05-14T02:07:41.969Z,16.13
2023-05-14T02:10:09.026Z,17.85
2023-05-14T02:12:35.787Z,16.10
2023-05-14T02:15:03.744Z,15.32
2023-05-14T02:17:30.356Z,15.05
2023-05-14T02:19:56.814Z,18.27
2023-05-14T02:22:23.398Z,17.80
2023-05-14T02:24:51.504Z,16.93
2023-05-14T02:27:18.166Z,18.35
2023-05-14T02:29:45.019Z,16.63
2023-05-14T02:32:11.572Z,17.77
2023-05-14T02:34:38.700Z,17.02
2023-05-14T02:37:05.343Z,14.43
2023-05-14T02:39:31.891Z,16.08
2023-05-14T02:41:58.380Z,14.00
2023-05-14T02:44:24.854Z,14.90
2023-05-14T02:46:51.796Z,15.68
2023-05-14T02:49:18.260Z,14.83
2023-05-14T02:51:44.731Z,13.48
2023-05-14T02:54:11.274Z,16.10
2023-05-14T02:56:39.039Z,17.52
2023-05-14T02:59:05.651Z,17.25
2023-05-14T03:01:32.647Z,17.67
2023-05-14T03:03:59.735Z,17.58
2023-05-14T03:06:26.308Z,15.95
2023-05-14T03:08:52.787Z,14.23
2023-05-14T03:11:19.294Z,13.98
2023-05-14T03:13:45.829Z,15.63
2023-05-14T03:16:12.995Z,18.75
2023-05-14T03:18:39.561Z,14.95
2023-05-14T03:21:06.123Z,14.90
2023-05-14T03:23:34.981Z,17.73
2023-05-14T03:26:02.112Z,16.77
2023-05-14T03:28:28.590Z,15.20
2023-05-14T03:30:55.067Z,20.33
2023-05-14T03:33:22.698Z,16.10
2023-05-14T03:35:49.233Z,16.65
2023-05-14T03:38:15.718Z,18.33
2023-05-14T03:40:42.524Z,15.32
2023-05-14T03:43:08.960Z,15.93
2023-05-14T03:45:35.686Z,14.20
2023-05-14T03:48:02.381Z,14.18
2023-05-14T03:50:29.059Z,14.03
2023-05-14T03:52:55.564Z,16.67
2023-05-14T03:55:22.185Z,18.63
2023-05-14T03:57:48.762Z,18.42
2023-05-14T04:00:15.619Z,16.35
2023-05-14T04:02:42.595Z,17.47
2023-05-14T04:05:09.608Z,19.80
2023-05-14T04:07:36.546Z,17.40
2023-05-14T04:10:04.754Z,17.73
2023-05-14T04:12:31.485Z,16.10
2023-05-14T04:14:58.539Z,16.33
2023-05-14T04:17:25.740Z,15.57
2023-05-14T04:19:52.345Z,16.42
2023-05-14T04:22:18.907Z,16.20
2023-05-14T04:24:45.943Z,14.48
2023-05-14T04:27:19.961Z,13.43
2023-05-14T04:29:46.577Z,16.00
2023-05-14T04:32:13.418Z,14.38
2023-05-14T04:34:40.107Z,15.02
2023-05-14T04:37:06.815Z,12.02
2023-05-14T04:39:33.513Z,15.33
2023-05-14T04:42:00.003Z,13.05
2023-05-14T04:44:26.448Z,17.08
2023-05-14T04:46:52.963Z,11.98
2023-05-14T04:49:19.460Z,13.52
2023-05-14T04:51:46.029Z,13.37
2023-05-14T04:54:12.592Z,15.13
2023-05-14T04:56:39.286Z,12.55
2023-05-14T04:59:06.342Z,12.50
2023-05-14T05:01:33.050Z,13.73
2023-05-14T05:03:59.662Z,15.17
2023-05-14T05:06:26.501Z,11.93
2023-05-14T05:08:53.001Z,12.80
2023-05-14T05:11:19.469Z,13.32
2023-05-14T05:13:46.080Z,12.98
2023-05-14T05:16:12.821Z,12.50
2023-05-14T05:18:39.438Z,11.20
2023-05-14T05:21:06.852Z,13.10
2023-05-14T05:23:33.478Z,10.95
2023-05-14T05:25:59.871Z,10.00
2023-05-14T05:28:26.310Z,10.87
2023-05-14T05:30:53.073Z,12.18
2023-05-14T05:33:21.542Z,14.52
2023-05-14T05:35:48.899Z,11.13
2023-05-14T05:38:16.256Z,12.20
2023-05-14T05:40:43.089Z,13.87
2023-05-14T05:43:09.759Z,10.88
2023-05-14T05:45:36.235Z,10.88
2023-05-14T05:48:02.917Z,12.70
2023-05-14T05:50:31.666Z,12.30
2023-05-14T05:52:59.405Z,11.67
2023-05-14T05:55:25.943Z,11.38
2023-05-14T05:57:52.614Z,12.77
2023-05-14T06:00:19.595Z,11.75
2023-05-14T06:02:46.843Z,11.18
2023-05-14T06:05:13.650Z,10.30
2023-05-14T06:07:40.434Z,10.68
2023-05-14T06:10:07.522Z,11.05
2023-05-14T06:12:34.153Z,12.48
2023-05-14T06:15:00.732Z,10.70
2023-05-14T06:17:27.297Z,9.47
2023-05-14T06:19:53.857Z,11.13
2023-05-14T06:22:20.436Z,10.43
2023-05-14T06:24:47.790Z,9.82
2023-05-14T06:27:14.267Z,10.68
2023-05-14T06:29:40.798Z,11.37
2023-05-14T06:32:07.949Z,11.70
2023-05-14T06:34:34.736Z,10.68
2023-05-14T06:37:03.576Z,15.60
2023-05-14T06:39:30.106Z,10.07
2023-05-14T06:41:56.576Z,11.63
2023-05-14T06:44:23.003Z,11.50
2023-05-14T06:46:49.506Z,10.13
2023-05-14T06:49:16.293Z,10.00
2023-05-14T06:51:42.986Z,11.35
2023-05-14T06:54:09.663Z,10.07
2023-05-14T06:56:36.136Z,8.68
2023-05-14T06:59:02.837Z,10.07
2023-05-14T07:01:29.429Z,8.70
2023-05-14T07:03:56.359Z,10.95
2023-05-14T07:06:23.550Z,9.43
2023-05-14T07:08:49.988Z,9.80
2023-05-14T07:11:16.588Z,9.45
2023-05-14T07:13:43.308Z,7.95
2023-05-14T07:16:10.559Z,9.43
2023-05-14T07:18:37.164Z,9.10
2023-05-14T07:21:06.655Z,13.02
2023-05-14T07:23:36.232Z,8.00
2023-05-14T07:26:03.686Z,11.00
2023-05-14T07:28:32.570Z,10.48
2023-05-14T07:30:59.529Z,8.50
2023-05-14T07:33:26.564Z,8.70
2023-05-14T07:35:54.427Z,8.45
2023-05-14T07:38:21.312Z,10.45
2023-05-14T07:40:47.843Z,8.73
2023-05-14T07:43:14.680Z,10.37
2023-05-14T07:45:41.553Z,11.52
2023-05-14T07:48:08.616Z,7.40
2023-05-14T07:50:35.602Z,14.52
2023-05-14T07:53:02.077Z,9.60
2023-05-14T07:55:28.768Z,13.33
2023-05-14T07:57:55.232Z,11.25
2023-05-14T08:00:21.960Z,9.18
2023-05-14T08:02:49.325Z,9.32
2023-05-14T08:05:16.629Z,8.00
2023-05-14T08:07:43.458Z,9.20
2023-05-14T08:10:10.618Z,9.63
2023-05-14T08:12:37.098Z,10.43
2023-05-14T08:15:04.092Z,8.90
2023-05-14T08:17:30.598Z,11.07
2023-05-14T08:19:57.104Z,8.73
2023-05-14T08:22:23.511Z,8.65
2023-05-14T08:24:50.023Z,9.43
2023-05-14T08:27:19.238Z,13.30
2023-05-14T08:29:45.700Z,12.18
2023-05-14T08:32:22.096Z,10.90
2023-05-14T08:34:50.691Z,9.63
2023-05-14T08:37:17.413Z,10.40
2023-05-14T08:39:43.896Z,10.63
2023-05-14T08:42:12.838Z,10.15
2023-05-14T08:44:47.745Z,9.57
2023-05-14T08:47:16.250Z,10.02
2023-05-14T08:49:46.332Z,8.70
2023-05-14T08:52:13.579Z,9.27
2023-05-14T08:54:40.449Z,9.13
2023-05-14T08:57:10.051Z,10.63
2023-05-14T08:59:36.794Z,11.55
2023-05-14T09:02:06.418Z,9.15
2023-05-14T09:04:34.080Z,9.18
2023-05-14T09:07:02.139Z,7.03
2023-05-14T09:09:29.019Z,8.40
2023-05-14T09:11:55.665Z,8.90
2023-05-14T09:14:23.161Z,9.40
2023-05-14T09:16:51.168Z,13.63
2023-05-14T09:19:19.217Z,8.68
2023-05-14T09:21:47.782Z,6.50
2023-05-14T09:24:25.520Z,10.32
2023-05-14T09:26:53.814Z,8.40
2023-05-14T09:29:20.493Z,7.80
2023-05-14T09:31:51.415Z,9.18
2023-05-14T09:34:47.594Z,8.37
2023-05-14T09:37:14.190Z,7.03
2023-05-14T09:39:40.742Z,6.90
2023-05-14T09:42:07.388Z,10.20
2023-05-14T09:44:36.266Z,12.30
2023-05-14T09:47:04.351Z,6.23
2023-05-14T09:49:31.249Z,8.73
2023-05-14T09:51:57.992Z,8.68
2023-05-14T09:54:26.489Z,8.82
2023-05-14T09:56:55.486Z,8.52
2023-05-14T09:59:22.398Z,6.93
2023-05-14T10:01:50.084Z,11.13
2023-05-14T10:04:17.466Z,10.85
2023-05-14T10:06:48.181Z,8.77
2023-05-14T10:09:19.636Z,8.38
2023-05-14T10:11:52.921Z,5.47
2023-05-14T10:14:40.453Z,7.82
2023-05-14T10:17:07.948Z,7.45
2023-05-14T10:19:35.563Z,6.82
2023-05-14T10:22:07.807Z,9.02
2023-05-14T10:24:34.996Z,7.63
2023-05-14T10:27:02.035Z,10.27
2023-05-14T10:29:37.435Z,10.32
2023-05-14T10:32:06.578Z,10.05
2023-05-14T10:34:46.296Z,8.05
2023-05-14T10:37:15.745Z,7.60
2023-05-14T10:40:14.893Z,8.73
2023-05-14T10:42:43.622Z,7.95
2023-05-14T10:45:12.600Z,7.07
2023-05-14T10:47:41.942Z,8.88
2023-05-14T10:50:10.905Z,10.83
2023-05-14T10:52:37.845Z,6.15
2023-05-14T10:55:09.307Z,8.98
2023-05-14T10:57:40.072Z,4.90
2023-05-14T11:00:09.124Z,6.15
2023-05-14T11:02:37.706Z,7.70
2023-05-14T11:05:13.906Z,8.13
2023-05-14T11:07:43.585Z,9.95
2023-05-14T11:10:15.459Z,8.25
2023-05-14T11:12:46.806Z,8.65
2023-05-14T11:15:17.594Z,8.13
2023-05-14T11:17:45.839Z,9.35
2023-05-14T11:20:12.960Z,6.82
2023-05-14T11:22:41.857Z,8.55
2023-05-14T11:25:09.387Z,9.68
2023-05-14T11:27:37.950Z,6.77
2023-05-14T11:30:05.197Z,7.28
2023-05-14T11:32:32.821Z,5.57
2023-05-14T11:34:59.410Z,7.22
2023-05-14T11:37:26.086Z,6.15
2023-05-14T11:39:54.256Z,6.90
2023-05-14T11:42:21.738Z,9.82
2023-05-14T11:44:49.642Z,8.15
2023-05-14T11:47:17.641Z,8.88
2023-05-14T11:49:44.542Z,7.13
2023-05-14T11:52:14.207Z,7.43
2023-05-14T11:54:42.201Z,7.13
2023-05-14T11:57:11.461Z,10.68
2023-05-14T11:59:38.958Z,10.32
2023-05-14T12:02:08.593Z,9.55
2023-05-14T12:04:35.544Z,5.67
2023-05-14T12:07:09.018Z,7.30
2023-05-14T12:09:41.990Z,7.55
2023-05-14T12:12:11.447Z,6.15
2023-05-14T12:14:41.547Z,6.22
2023-05-14T12:17:23.652Z,7.87
2023-05-14T12:19:52.157Z,7.00
2023-05-14T12:22:22.570Z,6.15
2023-05-14T12:27:40.109Z,8.07
2023-05-14T12:38:12.620Z,6.43
2023-05-14T12:40:39.086Z,6.88
2023-05-14T12:43:05.580Z,7.07
2023-05-14T12:45:32.201Z,6.30
2023-05-14T12:47:58.829Z,7.10
2023-05-14T12:50:25.820Z,7.03
2023-05-14T12:52:52.494Z,6.03
2023-05-14T12:55:18.970Z,9.03
2023-05-14T12:57:45.578Z,7.70
2023-05-14T13:00:14.196Z,7.90
2023-05-14T13:02:42.659Z,7.65
2023-05-14T13:05:11.206Z,8.20
2023-05-14T13:07:38.506Z,5.97
2023-05-14T13:10:05.717Z,9.32
2023-05-14T13:12:32.531Z,4.63
2023-05-14T13:14:58.965Z,5.47
2023-05-14T13:17:25.509Z,5.65
2023-05-14T13:19:51.972Z,5.87
2023-05-14T13:22:18.979Z,6.55
2023-05-14T13:24:45.701Z,8.55
2023-05-14T13:27:12.538Z,8.27
2023-05-14T13:29:38.967Z,8.27
2023-05-14T13:32:05.868Z,6.40
2023-05-14T13:34:32.384Z,5.03
2023-05-14T13:36:58.855Z,6.75
2023-05-14T13:39:27.351Z,7.13
2023-05-14T13:41:57.086Z,8.43
2023-05-14T13:44:24.281Z,6.33
2023-05-14T13:46:51.017Z,8.55
2023-05-14T13:49:17.710Z,6.35
2023-05-14T13:51:44.834Z,5.18
2023-05-14T13:54:11.357Z,8.75
2023-05-14T13:56:37.918Z,7.07
2023-05-14T13:59:05.223Z,7.72
2023-05-14T14:01:31.871Z,8.98
2023-05-14T14:03:58.493Z,6.55
2023-05-14T14:06:27.159Z,6.15
2023-05-14T14:08:54.069Z,6.43
2023-05-14T14:11:20.842Z,10.00
2023-05-14T14:13:47.431Z,8.43
2023-05-14T14:16:13.987Z,6.80
2023-05-14T14:18:40.474Z,6.57
2023-05-14T14:21:07.013Z,6.83
2023-05-14T14:23:33.632Z,6.70
2023-05-14T14:26:00.875Z,8.52
2023-05-14T14:28:27.513Z,7.53
2023-05-14T14:30:53.947Z,9.65
2023-05-14T14:33:20.689Z,7.77
2023-05-14T14:35:47.223Z,7.28
2023-05-14T14:38:14.126Z,9.40
2023-05-14T14:40:40.714Z,8.35
2023-05-14T14:43:07.513Z,7.30
2023-05-14T14:45:34.233Z,7.07
2023-05-14T14:48:23.670Z,6.03
2023-05-14T14:50:50.559Z,8.73
2023-05-14T14:53:17.056Z,6.30
2023-05-14T14:55:43.580Z,9.93
2023-05-14T14:58:10.044Z,6.73
2023-05-14T15:00:36.558Z,9.27
2023-05-14T15:03:03.791Z,7.10
2023-05-14T15:05:30.256Z,7.75
2023-05-14T15:07:56.695Z,4.72
2023-05-14T15:10:23.561Z,7.57
2023-05-14T15:12:50.038Z,6.22
2023-05-14T15:15:16.504Z,6.03
2023-05-14T15:17:43.011Z,4.32
2023-05-14T15:20:10.120Z,7.43
2023-05-14T15:22:36.637Z,6.23
2023-05-14T15:25:04.204Z,5.30
2023-05-14T15:27:30.689Z,5.57
2023-05-14T15:29:57.226Z,8.55
2023-05-14T15:32:25.814Z,6.10
2023-05-14T15:34:52.565Z,6.57
2023-05-14T15:37:19.067Z,8.77
2023-05-14T15:39:45.578Z,8.70
2023-05-14T15:42:12.479Z,4.93
2023-05-14T15:44:39.423Z,7.38
2023-05-14T15:47:06.276Z,8.07
2023-05-14T15:49:32.705Z,4.85
2023-05-14T15:52:05.595Z,5.47
2023-05-14T15:54:32.356Z,5.90
2023-05-14T15:56:58.764Z,7.07
2023-05-14T15:59:25.364Z,7.00
2023-05-14T16:01:51.995Z,8.45
2023-05-14T16:04:18.735Z,7.85
2023-05-14T16:06:45.451Z,6.18
2023-05-14T16:09:12.060Z,7.30
2023-05-14T16:11:38.546Z,6.93
2023-05-14T16:14:05.046Z,7.30
2023-05-14T16:16:31.735Z,7.45
2023-05-14T16:18:59.115Z,6.90
2023-05-14T16:21:25.732Z,9.57
2023-05-14T16:23:52.194Z,5.50
2023-05-14T16:26:18.652Z,5.60
2023-05-14T16:28:45.115Z,6.70
2023-05-14T16:31:11.510Z,6.40
2023-05-14T16:33:38.030Z,8.70
2023-05-14T16:36:04.851Z,8.13
2023-05-14T16:38:31.348Z,6.60
2023-05-14T16:40:58.176Z,8.98
2023-05-14T16:43:24.737Z,8.48
2023-05-14T16:45:51.289Z,6.90
2023-05-14T16:48:18.192Z,7.67
2023-05-14T16:50:44.677Z,9.05
2023-05-14T16:53:11.190Z,5.90
2023-05-14T16:55:37.679Z,8.98
2023-05-14T16:58:04.180Z,6.20
2023-05-14T17:00:30.616Z,7.43
2023-05-14T17:02:57.299Z,8.75
2023-05-14T17:05:24.439Z,7.40
2023-05-14T17:07:51.153Z,7.57
2023-05-14T17:10:17.695Z,7.30
2023-05-14T17:12:44.428Z,9.97
2023-05-14T17:15:12.083Z,6.07
2023-05-14T17:17:38.753Z,8.55
2023-05-14T17:22:32.857Z,11.48
2023-05-14T17:24:59.635Z,8.10
2023-05-14T17:27:26.401Z,11.15
2023-05-14T17:29:52.901Z,9.45
2023-05-14T17:32:19.482Z,9.85
2023-05-14T17:34:46.284Z,11.50
2023-05-14T17:37:13.089Z,10.20
2023-05-14T17:39:39.626Z,10.57
2023-05-14T17:42:06.721Z,9.75
2023-05-14T17:44:34.809Z,10.30
2023-05-14T17:47:04.646Z,10.23
2023-05-14T17:49:31.340Z,8.47
2023-05-14T17:51:59.374Z,9.13
2023-05-14T17:54:26.096Z,11.60
2023-05-14T17:56:53.021Z,8.10
2023-05-14T17:59:24.129Z,8.75
2023-05-14T18:01:51.039Z,11.23
2023-05-14T18:04:17.617Z,13.10
2023-05-14T18:06:46.101Z,9.50
2023-05-14T18:09:12.657Z,12.75
2023-05-14T18:11:39.550Z,7.72
2023-05-14T18:14:06.122Z,9.97
2023-05-14T18:16:35.016Z,10.02
2023-05-14T18:19:01.594Z,7.95
2023-05-14T18:21:28.444Z,14.30
2023-05-14T18:23:54.913Z,10.57
2023-05-14T18:26:24.324Z,6.00
2023-05-14T18:28:51.581Z,14.32
2023-05-14T18:31:18.222Z,7.07
2023-05-14T18:33:44.677Z,8.55
2023-05-14T18:36:11.707Z,6.68
2023-05-14T18:38:38.296Z,10.10
2023-05-14T18:41:04.837Z,7.45
2023-05-14T18:43:31.410Z,8.23
2023-05-14T18:45:58.887Z,7.13
2023-05-14T18:48:26.388Z,7.18
2023-05-14T18:50:52.860Z,8.43
2023-05-14T18:53:19.336Z,7.97
2023-05-14T18:55:45.903Z,6.60
2023-05-14T18:58:12.604Z,9.02
2023-05-14T19:00:39.071Z,9.40
2023-05-14T19:03:05.692Z,8.93
2023-05-14T19:05:32.289Z,10.55
2023-05-14T19:07:58.778Z,8.40
2023-05-14T19:10:25.661Z,10.10
2023-05-14T19:12:52.421Z,8.38
2023-05-14T19:15:20.852Z,7.93
2023-05-14T19:17:47.945Z,7.25
2023-05-14T19:20:14.533Z,6.53
2023-05-14T19:22:41.092Z,8.88
2023-05-14T19:25:08.376Z,8.40
2023-05-14T19:27:37.011Z,7.70
2023-05-14T19:30:03.934Z,11.88
2023-05-14T19:32:30.510Z,10.07
2023-05-14T19:34:57.017Z,9.15
2023-05-14T19:37:23.934Z,11.43
2023-05-14T19:39:50.417Z,6.90
2023-05-14T19:42:17.166Z,11.80
2023-05-14T19:44:44.092Z,11.73
2023-05-14T19:47:10.820Z,9.43
2023-05-14T19:49:37.383Z,8.10
2023-05-14T19:52:04.051Z,9.27
2023-05-14T19:54:30.837Z,10.52
2023-05-14T19:56:57.296Z,10.55
2023-05-14T19:59:24.827Z,8.40
2023-05-14T20:01:51.879Z,8.75
2023-05-14T20:04:19.768Z,7.57
2023-05-14T20:06:47.154Z,10.38
2023-05-14T20:09:13.785Z,11.35
2023-05-14T20:11:40.620Z,8.45
2023-05-14T20:14:07.152Z,13.43
2023-05-14T20:16:33.647Z,10.80
2023-05-14T20:19:00.308Z,9.63
2023-05-14T20:21:26.773Z,9.50
2023-05-14T20:23:53.275Z,11.35
2023-05-14T20:26:19.977Z,10.48
2023-05-14T20:28:46.446Z,11.03
2023-05-14T20:31:13.085Z,9.18
2023-05-14T20:33:39.664Z,12.32
2023-05-14T20:36:06.654Z,10.70
2023-05-14T20:38:34.853Z,12.73
2023-05-14T20:41:01.384Z,11.83
2023-05-14T20:43:27.880Z,11.25
2023-05-14T20:45:58.848Z,10.43
2023-05-14T20:48:25.620Z,13.20
2023-05-14T20:50:52.099Z,10.15
2023-05-14T20:53:18.685Z,8.27
2023-05-14T20:55:45.364Z,13.43
2023-05-14T20:58:11.757Z,11.63
2023-05-14T21:00:39.189Z,9.63
2023-05-14T21:03:05.946Z,8.93
2023-05-14T21:05:32.637Z,7.50
2023-05-14T21:07:59.053Z,8.52
2023-05-14T21:10:25.936Z,12.18
2023-05-14T21:12:52.686Z,8.32
2023-05-14T21:15:19.212Z,9.82
2023-05-14T21:17:45.867Z,9.53
2023-05-14T21:20:13.551Z,8.25
2023-05-14T21:22:40.096Z,10.57
2023-05-14T21:25:06.825Z,8.80
2023-05-14T21:27:33.662Z,10.40
2023-05-14T21:30:00.219Z,8.90
2023-05-14T21:32:26.821Z,13.40
2023-05-14T21:34:53.340Z,8.57
2023-05-14T21:37:21.601Z,10.35
2023-05-14T21:39:48.078Z,9.00
2023-05-14T21:42:16.070Z,9.93
2023-05-14T21:44:42.619Z,9.32
2023-05-14T21:47:09.118Z,9.18
2023-05-14T21:49:35.710Z,7.43
2023-05-14T21:52:02.253Z,9.57
2023-05-14T21:54:28.671Z,7.50
2023-05-14T21:56:55.423Z,12.05
2023-05-14T21:59:22.001Z,9.93
2023-05-14T22:02:05.419Z,8.00
2023-05-14T22:04:33.115Z,11.02
2023-05-14T22:07:00.005Z,13.80
2023-05-14T22:09:26.512Z,11.70
2023-05-14T22:11:53.016Z,9.10
2023-05-14T22:14:19.569Z,10.02
2023-05-14T22:16:46.165Z,10.50
2023-05-14T22:19:12.678Z,9.83
2023-05-14T22:21:39.412Z,8.35
2023-05-14T22:24:06.137Z,8.48
2023-05-14T22:26:32.637Z,10.80
2023-05-14T22:28:59.245Z,8.80
2023-05-14T22:31:26.055Z,6.60
2023-05-14T22:33:53.037Z,8.20
2023-05-14T22:36:19.517Z,9.63
2023-05-14T22:38:46.173Z,10.77
2023-05-14T22:41:12.747Z,12.07
2023-05-14T22:43:39.242Z,9.20
2023-05-14T22:46:06.183Z,10.18
2023-05-14T22:48:32.781Z,10.93
2023-05-14T22:50:59.300Z,8.98
2023-05-14T22:53:25.935Z,8.25
2023-05-14T22:55:52.538Z,11.67
2023-05-14T22:58:19.007Z,10.98
2023-05-14T23:00:45.533Z,8.68
2023-05-14T23:03:12.384Z,11.40
2023-05-14T23:05:39.201Z,12.35
2023-05-14T23:08:05.991Z,12.67
2023-05-14T23:10:32.956Z,13.23
2023-05-14T23:12:59.448Z,15.13
2023-05-14T23:15:26.668Z,16.17
2023-05-14T23:17:53.352Z,9.82
2023-05-14T23:20:19.950Z,10.67
2023-05-14T23:22:46.470Z,10.90
2023-05-14T23:25:13.029Z,11.48
2023-05-14T23:27:39.601Z,11.07
2023-05-14T23:30:06.818Z,10.23
2023-05-14T23:32:33.417Z,13.80
2023-05-14T23:34:59.887Z,10.55
2023-05-14T23:37:26.374Z,11.15
2023-05-14T23:39:53.365Z,14.05
2023-05-14T23:42:20.140Z,11.88
2023-05-14T23:44:46.913Z,11.50
2023-05-14T23:47:13.574Z,10.75
2023-05-14T23:49:40.948Z,11.18
2023-05-14T23:52:07.760Z,11.05
2023-05-14T23:54:34.346Z,8.73
2023-05-14T23:57:00.785Z,12.80
2023-05-14T23:59:27.383Z,15.48
